sensor_id;sensor_type;location;lat;lon;timestamp;P1;durP1;ratioP1;P2;durP2;ratioP2
18947;SDS011;9607;51.600;7.558;2023-02-20T00:02:13;44.05;;;19.10;;
18947;SDS011;9607;51.600;7.558;2023-02-20T00:04:40;41.70;;;20.25;;
18947;SDS011;9607;51.600;7.558;2023-02-20T00:07:07;35.40;;;17.85;;
18947;SDS011;9607;51.600;7.558;2023-02-20T00:09:35;34.55;;;16.98;;
18947;SDS011;9607;51.600;7.558;2023-02-20T00:12:03;25.65;;;14.60;;
18947;SDS011;9607;51.600;7.558;2023-02-20T00:14:29;37.88;;;17.20;;
18947;SDS011;9607;51.600;7.558;2023-02-20T00:16:56;29.33;;;16.10;;
18947;SDS011;9607;51.600;7.558;2023-02-20T00:19:23;28.40;;;15.30;;
18947;SDS011;9607;51.600;7.558;2023-02-20T00:21:50;26.58;;;14.52;;
18947;SDS011;9607;51.600;7.558;2023-02-20T00:24:18;23.92;;;14.32;;
18947;SDS011;9607;51.600;7.558;2023-02-20T00:26:47;31.58;;;15.23;;
18947;SDS011;9607;51.600;7.558;2023-02-20T00:29:15;28.25;;;14.50;;
18947;SDS011;9607;51.600;7.558;2023-02-20T00:31:43;26.13;;;14.00;;
18947;SDS011;9607;51.600;7.558;2023-02-20T00:34:15;21.15;;;12.45;;
18947;SDS011;9607;51.600;7.558;2023-02-20T00:36:42;31.35;;;14.18;;
18947;SDS011;9607;51.600;7.558;2023-02-20T00:39:08;19.05;;;11.27;;
18947;SDS011;9607;51.600;7.558;2023-02-20T00:41:35;24.50;;;13.15;;
18947;SDS011;9607;51.600;7.558;2023-02-20T00:44:04;28.63;;;13.23;;
18947;SDS011;9607;51.600;7.558;2023-02-20T00:46:31;33.65;;;14.27;;
18947;SDS011;9607;51.600;7.558;2023-02-20T00:48:58;30.10;;;12.43;;
18947;SDS011;9607;51.600;7.558;2023-02-20T00:51:25;32.33;;;14.65;;
18947;SDS011;9607;51.600;7.558;2023-02-20T00:53:52;38.75;;;15.07;;
18947;SDS011;9607;51.600;7.558;2023-02-20T00:56:19;40.95;;;16.90;;
18947;SDS011;9607;51.600;7.558;2023-02-20T00:58:46;47.55;;;16.65;;
18947;SDS011;9607;51.600;7.558;2023-02-20T01:01:14;39.33;;;15.98;;
18947;SDS011;9607;51.600;7.558;2023-02-20T01:03:41;37.17;;;15.35;;
18947;SDS011;9607;51.600;7.558;2023-02-20T01:06:08;37.72;;;15.25;;
18947;SDS011;9607;51.600;7.558;2023-02-20T01:08:35;41.88;;;15.00;;
18947;SDS011;9607;51.600;7.558;2023-02-20T01:11:01;44.97;;;16.52;;
18947;SDS011;9607;51.600;7.558;2023-02-20T01:13:28;36.72;;;15.20;;
18947;SDS011;9607;51.600;7.558;2023-02-20T01:15:55;47.85;;;16.75;;
18947;SDS011;9607;51.600;7.558;2023-02-20T01:18:24;36.83;;;14.07;;
18947;SDS011;9607;51.600;7.558;2023-02-20T01:20:51;49.47;;;16.05;;
18947;SDS011;9607;51.600;7.558;2023-02-20T01:23:18;52.25;;;17.10;;
18947;SDS011;9607;51.600;7.558;2023-02-20T01:25:44;58.67;;;19.48;;
18947;SDS011;9607;51.600;7.558;2023-02-20T01:28:11;64.90;;;19.02;;
18947;SDS011;9607;51.600;7.558;2023-02-20T01:30:38;68.43;;;19.38;;
18947;SDS011;9607;51.600;7.558;2023-02-20T01:33:05;61.45;;;19.08;;
18947;SDS011;9607;51.600;7.558;2023-02-20T01:35:33;70.32;;;22.55;;
18947;SDS011;9607;51.600;7.558;2023-02-20T01:38:00;83.60;;;21.23;;
18947;SDS011;9607;51.600;7.558;2023-02-20T01:40:31;62.90;;;20.20;;
18947;SDS011;9607;51.600;7.558;2023-02-20T01:42:58;92.90;;;25.45;;
18947;SDS011;9607;51.600;7.558;2023-02-20T01:45:31;58.78;;;18.55;;
18947;SDS011;9607;51.600;7.558;2023-02-20T01:48:00;61.88;;;20.92;;
18947;SDS011;9607;51.600;7.558;2023-02-20T01:50:28;66.68;;;21.17;;
18947;SDS011;9607;51.600;7.558;2023-02-20T01:52:59;72.97;;;22.17;;
18947;SDS011;9607;51.600;7.558;2023-02-20T01:55:30;87.75;;;26.10;;
18947;SDS011;9607;51.600;7.558;2023-02-20T01:58:02;70.20;;;21.25;;
18947;SDS011;9607;51.600;7.558;2023-02-20T02:00:31;101.53;;;27.45;;
18947;SDS011;9607;51.600;7.558;2023-02-20T02:02:59;92.97;;;26.83;;
18947;SDS011;9607;51.600;7.558;2023-02-20T02:05:30;95.40;;;27.95;;
18947;SDS011;9607;51.600;7.558;2023-02-20T02:08:00;85.68;;;25.25;;
18947;SDS011;9607;51.600;7.558;2023-02-20T02:10:30;77.45;;;25.38;;
18947;SDS011;9607;51.600;7.558;2023-02-20T02:13:01;96.82;;;27.02;;
18947;SDS011;9607;51.600;7.558;2023-02-20T02:15:28;79.93;;;25.00;;
18947;SDS011;9607;51.600;7.558;2023-02-20T02:17:58;72.60;;;23.65;;
18947;SDS011;9607;51.600;7.558;2023-02-20T02:20:45;78.78;;;25.35;;
18947;SDS011;9607;51.600;7.558;2023-02-20T02:23:50;76.70;;;23.70;;
18947;SDS011;9607;51.600;7.558;2023-02-20T02:36:07;61.05;;;20.20;;
18947;SDS011;9607;51.600;7.558;2023-02-20T02:38:50;65.35;;;21.23;;
18947;SDS011;9607;51.600;7.558;2023-02-20T02:41:27;59.75;;;21.67;;
18947;SDS011;9607;51.600;7.558;2023-02-20T02:44:04;66.40;;;21.40;;
18947;SDS011;9607;51.600;7.558;2023-02-20T02:46:36;59.08;;;19.73;;
18947;SDS011;9607;51.600;7.558;2023-02-20T02:49:10;52.35;;;19.75;;
18947;SDS011;9607;51.600;7.558;2023-02-20T02:51:44;53.97;;;19.85;;
18947;SDS011;9607;51.600;7.558;2023-02-20T02:54:14;71.20;;;22.23;;
18947;SDS011;9607;51.600;7.558;2023-02-20T02:56:44;61.65;;;21.83;;
18947;SDS011;9607;51.600;7.558;2023-02-20T02:59:13;66.95;;;23.13;;
18947;SDS011;9607;51.600;7.558;2023-02-20T03:01:43;58.67;;;21.30;;
18947;SDS011;9607;51.600;7.558;2023-02-20T03:04:14;79.82;;;24.38;;
18947;SDS011;9607;51.600;7.558;2023-02-20T03:06:48;70.00;;;23.40;;
18947;SDS011;9607;51.600;7.558;2023-02-20T03:09:19;79.88;;;24.33;;
18947;SDS011;9607;51.600;7.558;2023-02-20T03:11:50;88.13;;;26.08;;
18947;SDS011;9607;51.600;7.558;2023-02-20T03:14:20;69.25;;;23.35;;
18947;SDS011;9607;51.600;7.558;2023-02-20T03:17:09;73.38;;;24.63;;
18947;SDS011;9607;51.600;7.558;2023-02-20T03:19:43;78.25;;;25.13;;
18947;SDS011;9607;51.600;7.558;2023-02-20T03:22:15;72.40;;;23.48;;
18947;SDS011;9607;51.600;7.558;2023-02-20T03:24:53;85.72;;;25.65;;
18947;SDS011;9607;51.600;7.558;2023-02-20T03:27:24;76.90;;;24.33;;
18947;SDS011;9607;51.600;7.558;2023-02-20T03:30:03;71.10;;;23.80;;
18947;SDS011;9607;51.600;7.558;2023-02-20T03:32:34;87.35;;;27.40;;
18947;SDS011;9607;51.600;7.558;2023-02-20T03:35:20;79.15;;;24.40;;
18947;SDS011;9607;51.600;7.558;2023-02-20T03:38:10;75.03;;;23.90;;
18947;SDS011;9607;51.600;7.558;2023-02-20T03:40:59;67.88;;;22.42;;
18947;SDS011;9607;51.600;7.558;2023-02-20T03:43:43;78.85;;;25.17;;
18947;SDS011;9607;51.600;7.558;2023-02-20T03:46:13;64.13;;;21.48;;
18947;SDS011;9607;51.600;7.558;2023-02-20T03:48:47;65.25;;;21.27;;
18947;SDS011;9607;51.600;7.558;2023-02-20T03:51:18;62.85;;;22.05;;
18947;SDS011;9607;51.600;7.558;2023-02-20T03:53:47;71.32;;;21.80;;
18947;SDS011;9607;51.600;7.558;2023-02-20T03:56:15;78.18;;;23.83;;
18947;SDS011;9607;51.600;7.558;2023-02-20T03:58:53;52.08;;;19.85;;
18947;SDS011;9607;51.600;7.558;2023-02-20T04:01:24;69.50;;;22.30;;
18947;SDS011;9607;51.600;7.558;2023-02-20T04:03:53;70.38;;;20.65;;
18947;SDS011;9607;51.600;7.558;2023-02-20T04:06:22;57.38;;;20.52;;
18947;SDS011;9607;51.600;7.558;2023-02-20T04:08:57;64.47;;;21.08;;
18947;SDS011;9607;51.600;7.558;2023-02-20T04:11:29;55.08;;;20.17;;
18947;SDS011;9607;51.600;7.558;2023-02-20T04:14:00;49.13;;;18.65;;
18947;SDS011;9607;51.600;7.558;2023-02-20T04:16:27;47.67;;;17.85;;
18947;SDS011;9607;51.600;7.558;2023-02-20T04:18:54;52.28;;;19.70;;
18947;SDS011;9607;51.600;7.558;2023-02-20T04:21:23;64.32;;;20.00;;
18947;SDS011;9607;51.600;7.558;2023-02-20T04:24:01;66.82;;;20.40;;
18947;SDS011;9607;51.600;7.558;2023-02-20T04:26:32;58.00;;;18.55;;
18947;SDS011;9607;51.600;7.558;2023-02-20T04:29:00;50.58;;;19.70;;
18947;SDS011;9607;51.600;7.558;2023-02-20T04:31:28;61.85;;;21.17;;
18947;SDS011;9607;51.600;7.558;2023-02-20T04:33:54;50.65;;;18.23;;
18947;SDS011;9607;51.600;7.558;2023-02-20T04:36:22;61.42;;;20.02;;
18947;SDS011;9607;51.600;7.558;2023-02-20T04:38:49;53.03;;;18.83;;
18947;SDS011;9607;51.600;7.558;2023-02-20T04:41:17;62.22;;;18.83;;
18947;SDS011;9607;51.600;7.558;2023-02-20T04:43:44;57.65;;;18.48;;
18947;SDS011;9607;51.600;7.558;2023-02-20T04:46:12;79.65;;;21.58;;
18947;SDS011;9607;51.600;7.558;2023-02-20T04:48:39;62.67;;;18.52;;
18947;SDS011;9607;51.600;7.558;2023-02-20T04:51:05;59.08;;;18.35;;
18947;SDS011;9607;51.600;7.558;2023-02-20T04:53:32;44.65;;;17.15;;
18947;SDS011;9607;51.600;7.558;2023-02-20T04:55:59;54.92;;;17.50;;
18947;SDS011;9607;51.600;7.558;2023-02-20T04:58:27;51.22;;;18.33;;
18947;SDS011;9607;51.600;7.558;2023-02-20T05:00:54;47.60;;;18.05;;
18947;SDS011;9607;51.600;7.558;2023-02-20T05:03:21;65.50;;;20.63;;
18947;SDS011;9607;51.600;7.558;2023-02-20T05:05:48;51.10;;;17.30;;
18947;SDS011;9607;51.600;7.558;2023-02-20T05:08:17;49.67;;;17.40;;
18947;SDS011;9607;51.600;7.558;2023-02-20T05:10:45;64.35;;;19.08;;
18947;SDS011;9607;51.600;7.558;2023-02-20T05:13:11;53.00;;;18.08;;
18947;SDS011;9607;51.600;7.558;2023-02-20T05:15:40;49.72;;;17.67;;
18947;SDS011;9607;51.600;7.558;2023-02-20T05:18:06;59.33;;;18.17;;
18947;SDS011;9607;51.600;7.558;2023-02-20T05:20:33;53.95;;;17.75;;
18947;SDS011;9607;51.600;7.558;2023-02-20T05:23:18;48.53;;;16.25;;
18947;SDS011;9607;51.600;7.558;2023-02-20T05:25:45;48.83;;;17.65;;
18947;SDS011;9607;51.600;7.558;2023-02-20T05:28:11;49.15;;;16.73;;
18947;SDS011;9607;51.600;7.558;2023-02-20T05:30:40;57.50;;;19.42;;
18947;SDS011;9607;51.600;7.558;2023-02-20T05:33:06;45.13;;;16.75;;
18947;SDS011;9607;51.600;7.558;2023-02-20T05:35:33;47.47;;;15.73;;
18947;SDS011;9607;51.600;7.558;2023-02-20T05:38:03;61.58;;;19.20;;
18947;SDS011;9607;51.600;7.558;2023-02-20T05:40:30;50.42;;;17.10;;
18947;SDS011;9607;51.600;7.558;2023-02-20T05:42:57;42.50;;;15.82;;
18947;SDS011;9607;51.600;7.558;2023-02-20T05:45:24;53.10;;;16.95;;
18947;SDS011;9607;51.600;7.558;2023-02-20T05:47:53;61.55;;;17.88;;
18947;SDS011;9607;51.600;7.558;2023-02-20T05:50:21;63.08;;;17.73;;
18947;SDS011;9607;51.600;7.558;2023-02-20T05:52:48;49.47;;;16.02;;
18947;SDS011;9607;51.600;7.558;2023-02-20T05:55:15;49.10;;;15.77;;
18947;SDS011;9607;51.600;7.558;2023-02-20T05:57:42;55.88;;;17.73;;
18947;SDS011;9607;51.600;7.558;2023-02-20T06:00:09;38.65;;;15.07;;
18947;SDS011;9607;51.600;7.558;2023-02-20T06:02:37;44.20;;;15.55;;
18947;SDS011;9607;51.600;7.558;2023-02-20T06:05:06;37.22;;;13.88;;
18947;SDS011;9607;51.600;7.558;2023-02-20T06:07:33;50.83;;;16.05;;
18947;SDS011;9607;51.600;7.558;2023-02-20T06:10:00;42.55;;;15.68;;
18947;SDS011;9607;51.600;7.558;2023-02-20T06:12:27;42.47;;;15.00;;
18947;SDS011;9607;51.600;7.558;2023-02-20T06:14:54;40.28;;;14.50;;
18947;SDS011;9607;51.600;7.558;2023-02-20T06:17:21;41.35;;;15.60;;
18947;SDS011;9607;51.600;7.558;2023-02-20T06:19:48;45.58;;;15.63;;
18947;SDS011;9607;51.600;7.558;2023-02-20T06:22:16;49.55;;;16.70;;
18947;SDS011;9607;51.600;7.558;2023-02-20T06:24:43;44.75;;;15.70;;
18947;SDS011;9607;51.600;7.558;2023-02-20T06:27:12;38.95;;;14.98;;
18947;SDS011;9607;51.600;7.558;2023-02-20T06:29:39;46.55;;;16.30;;
18947;SDS011;9607;51.600;7.558;2023-02-20T06:32:06;41.67;;;15.27;;
18947;SDS011;9607;51.600;7.558;2023-02-20T06:34:33;34.15;;;14.70;;
18947;SDS011;9607;51.600;7.558;2023-02-20T06:37:00;37.92;;;15.52;;
18947;SDS011;9607;51.600;7.558;2023-02-20T06:39:29;35.58;;;16.35;;
18947;SDS011;9607;51.600;7.558;2023-02-20T06:41:57;43.15;;;17.70;;
18947;SDS011;9607;51.600;7.558;2023-02-20T06:44:24;35.50;;;17.33;;
18947;SDS011;9607;51.600;7.558;2023-02-20T06:46:51;60.67;;;21.90;;
18947;SDS011;9607;51.600;7.558;2023-02-20T06:49:18;52.00;;;21.02;;
18947;SDS011;9607;51.600;7.558;2023-02-20T06:51:45;44.25;;;22.48;;
18947;SDS011;9607;51.600;7.558;2023-02-20T06:54:12;50.97;;;23.77;;
18947;SDS011;9607;51.600;7.558;2023-02-20T06:56:41;64.68;;;28.42;;
18947;SDS011;9607;51.600;7.558;2023-02-20T06:59:07;51.10;;;26.55;;
18947;SDS011;9607;51.600;7.558;2023-02-20T07:01:38;60.72;;;29.33;;
18947;SDS011;9607;51.600;7.558;2023-02-20T07:04:06;63.20;;;31.10;;
18947;SDS011;9607;51.600;7.558;2023-02-20T07:06:39;62.95;;;30.77;;
18947;SDS011;9607;51.600;7.558;2023-02-20T07:09:06;63.25;;;32.00;;
18947;SDS011;9607;51.600;7.558;2023-02-20T07:11:33;76.55;;;33.85;;
18947;SDS011;9607;51.600;7.558;2023-02-20T07:14:01;60.30;;;33.42;;
18947;SDS011;9607;51.600;7.558;2023-02-20T07:16:28;64.60;;;34.72;;
18947;SDS011;9607;51.600;7.558;2023-02-20T07:18:56;67.97;;;37.25;;
18947;SDS011;9607;51.600;7.558;2023-02-20T07:21:23;69.38;;;37.20;;
18947;SDS011;9607;51.600;7.558;2023-02-20T07:23:50;66.00;;;36.00;;
18947;SDS011;9607;51.600;7.558;2023-02-20T07:26:17;66.40;;;37.22;;
18947;SDS011;9607;51.600;7.558;2023-02-20T07:28:45;75.90;;;38.03;;
18947;SDS011;9607;51.600;7.558;2023-02-20T07:31:14;59.92;;;34.38;;
18947;SDS011;9607;51.600;7.558;2023-02-20T07:33:40;63.40;;;35.58;;
18947;SDS011;9607;51.600;7.558;2023-02-20T07:36:08;57.33;;;32.95;;
18947;SDS011;9607;51.600;7.558;2023-02-20T07:38:35;59.25;;;36.10;;
18947;SDS011;9607;51.600;7.558;2023-02-20T07:41:02;70.72;;;38.40;;
18947;SDS011;9607;51.600;7.558;2023-02-20T07:43:29;66.63;;;38.88;;
18947;SDS011;9607;51.600;7.558;2023-02-20T07:45:56;64.25;;;38.47;;
18947;SDS011;9607;51.600;7.558;2023-02-20T07:48:25;69.32;;;36.97;;
18947;SDS011;9607;51.600;7.558;2023-02-20T07:50:52;75.57;;;36.47;;
18947;SDS011;9607;51.600;7.558;2023-02-20T07:53:19;57.75;;;33.25;;
18947;SDS011;9607;51.600;7.558;2023-02-20T07:55:46;59.40;;;34.50;;
18947;SDS011;9607;51.600;7.558;2023-02-20T07:58:13;63.05;;;35.47;;
18947;SDS011;9607;51.600;7.558;2023-02-20T08:00:40;53.47;;;33.67;;
18947;SDS011;9607;51.600;7.558;2023-02-20T08:03:06;61.13;;;35.30;;
18947;SDS011;9607;51.600;7.558;2023-02-20T08:05:35;54.20;;;32.40;;
18947;SDS011;9607;51.600;7.558;2023-02-20T08:08:02;58.13;;;34.33;;
18947;SDS011;9607;51.600;7.558;2023-02-20T08:10:28;55.08;;;30.95;;
18947;SDS011;9607;51.600;7.558;2023-02-20T08:12:55;54.33;;;31.58;;
18947;SDS011;9607;51.600;7.558;2023-02-20T08:15:22;68.45;;;35.33;;
18947;SDS011;9607;51.600;7.558;2023-02-20T08:17:49;59.83;;;34.80;;
18947;SDS011;9607;51.600;7.558;2023-02-20T08:20:17;54.13;;;32.83;;
18947;SDS011;9607;51.600;7.558;2023-02-20T08:22:47;59.42;;;35.10;;
18947;SDS011;9607;51.600;7.558;2023-02-20T08:25:16;58.97;;;35.42;;
18947;SDS011;9607;51.600;7.558;2023-02-20T08:27:44;68.20;;;39.15;;
18947;SDS011;9607;51.600;7.558;2023-02-20T08:30:13;66.38;;;36.63;;
18947;SDS011;9607;51.600;7.558;2023-02-20T08:32:41;72.63;;;37.85;;
18947;SDS011;9607;51.600;7.558;2023-02-20T08:35:08;64.10;;;35.58;;
18947;SDS011;9607;51.600;7.558;2023-02-20T08:37:35;66.93;;;36.13;;
18947;SDS011;9607;51.600;7.558;2023-02-20T08:40:03;63.45;;;35.00;;
18947;SDS011;9607;51.600;7.558;2023-02-20T08:42:32;56.72;;;34.50;;
18947;SDS011;9607;51.600;7.558;2023-02-20T08:44:59;58.67;;;34.33;;
18947;SDS011;9607;51.600;7.558;2023-02-20T08:47:26;57.35;;;33.72;;
18947;SDS011;9607;51.600;7.558;2023-02-20T08:49:53;55.00;;;32.70;;
18947;SDS011;9607;51.600;7.558;2023-02-20T08:52:20;54.03;;;32.92;;
18947;SDS011;9607;51.600;7.558;2023-02-20T08:54:47;51.65;;;29.77;;
18947;SDS011;9607;51.600;7.558;2023-02-20T08:57:15;52.35;;;29.60;;
18947;SDS011;9607;51.600;7.558;2023-02-20T08:59:43;53.00;;;28.90;;
18947;SDS011;9607;51.600;7.558;2023-02-20T09:02:14;47.78;;;27.35;;
18947;SDS011;9607;51.600;7.558;2023-02-20T09:04:42;48.75;;;27.15;;
18947;SDS011;9607;51.600;7.558;2023-02-20T09:07:10;46.45;;;26.77;;
18947;SDS011;9607;51.600;7.558;2023-02-20T09:09:37;50.72;;;25.80;;
18947;SDS011;9607;51.600;7.558;2023-02-20T09:12:05;42.40;;;24.45;;
18947;SDS011;9607;51.600;7.558;2023-02-20T09:14:34;43.53;;;25.50;;
18947;SDS011;9607;51.600;7.558;2023-02-20T09:17:02;45.20;;;24.55;;
18947;SDS011;9607;51.600;7.558;2023-02-20T09:19:29;46.88;;;25.05;;
18947;SDS011;9607;51.600;7.558;2023-02-20T09:21:56;44.72;;;24.08;;
18947;SDS011;9607;51.600;7.558;2023-02-20T09:24:23;41.90;;;23.90;;
18947;SDS011;9607;51.600;7.558;2023-02-20T09:26:52;43.97;;;24.58;;
18947;SDS011;9607;51.600;7.558;2023-02-20T09:29:18;42.85;;;24.73;;
18947;SDS011;9607;51.600;7.558;2023-02-20T09:31:47;38.05;;;22.73;;
18947;SDS011;9607;51.600;7.558;2023-02-20T09:34:13;41.72;;;24.17;;
18947;SDS011;9607;51.600;7.558;2023-02-20T09:36:40;41.78;;;23.00;;
18947;SDS011;9607;51.600;7.558;2023-02-20T09:39:07;46.92;;;23.40;;
18947;SDS011;9607;51.600;7.558;2023-02-20T09:41:37;42.78;;;24.48;;
18947;SDS011;9607;51.600;7.558;2023-02-20T09:44:16;38.63;;;21.80;;
18947;SDS011;9607;51.600;7.558;2023-02-20T09:46:52;46.72;;;22.73;;
18947;SDS011;9607;51.600;7.558;2023-02-20T09:49:22;39.80;;;21.67;;
18947;SDS011;9607;51.600;7.558;2023-02-20T09:51:58;40.85;;;23.65;;
18947;SDS011;9607;51.600;7.558;2023-02-20T09:54:29;35.50;;;22.55;;
18947;SDS011;9607;51.600;7.558;2023-02-20T09:56:58;43.80;;;21.85;;
18947;SDS011;9607;51.600;7.558;2023-02-20T09:59:28;43.25;;;23.02;;
18947;SDS011;9607;51.600;7.558;2023-02-20T10:02:02;40.13;;;22.48;;
18947;SDS011;9607;51.600;7.558;2023-02-20T10:04:41;43.55;;;22.50;;
18947;SDS011;9607;51.600;7.558;2023-02-20T10:07:12;43.33;;;22.08;;
18947;SDS011;9607;51.600;7.558;2023-02-20T10:09:46;42.53;;;22.42;;
18947;SDS011;9607;51.600;7.558;2023-02-20T10:12:15;40.63;;;22.40;;
18947;SDS011;9607;51.600;7.558;2023-02-20T10:14:58;35.25;;;20.95;;
18947;SDS011;9607;51.600;7.558;2023-02-20T10:17:37;38.38;;;21.33;;
18947;SDS011;9607;51.600;7.558;2023-02-20T10:20:10;33.78;;;20.35;;
18947;SDS011;9607;51.600;7.558;2023-02-20T10:22:44;38.50;;;21.48;;
18947;SDS011;9607;51.600;7.558;2023-02-20T10:25:19;39.22;;;21.15;;
18947;SDS011;9607;51.600;7.558;2023-02-20T10:27:53;34.28;;;20.10;;
18947;SDS011;9607;51.600;7.558;2023-02-20T10:30:26;34.28;;;20.13;;
18947;SDS011;9607;51.600;7.558;2023-02-20T10:33:00;28.45;;;18.20;;
18947;SDS011;9607;51.600;7.558;2023-02-20T10:35:39;28.10;;;18.67;;
18947;SDS011;9607;51.600;7.558;2023-02-20T10:38:09;39.33;;;19.60;;
18947;SDS011;9607;51.600;7.558;2023-02-20T10:40:40;34.38;;;18.42;;
18947;SDS011;9607;51.600;7.558;2023-02-20T10:43:11;36.25;;;18.30;;
18947;SDS011;9607;51.600;7.558;2023-02-20T10:45:47;31.88;;;18.58;;
18947;SDS011;9607;51.600;7.558;2023-02-20T10:48:19;35.33;;;18.83;;
18947;SDS011;9607;51.600;7.558;2023-02-20T10:50:51;33.58;;;18.02;;
18947;SDS011;9607;51.600;7.558;2023-02-20T10:53:25;31.63;;;18.23;;
18947;SDS011;9607;51.600;7.558;2023-02-20T10:56:00;29.45;;;16.83;;
18947;SDS011;9607;51.600;7.558;2023-02-20T10:58:33;25.42;;;17.20;;
18947;SDS011;9607;51.600;7.558;2023-02-20T11:01:05;30.80;;;17.33;;
18947;SDS011;9607;51.600;7.558;2023-02-20T11:03:40;29.58;;;17.08;;
18947;SDS011;9607;51.600;7.558;2023-02-20T11:06:12;29.00;;;16.60;;
18947;SDS011;9607;51.600;7.558;2023-02-20T11:08:42;36.42;;;18.50;;
18947;SDS011;9607;51.600;7.558;2023-02-20T11:11:20;30.55;;;16.92;;
18947;SDS011;9607;51.600;7.558;2023-02-20T11:13:50;30.80;;;16.85;;
18947;SDS011;9607;51.600;7.558;2023-02-20T11:16:20;24.70;;;15.65;;
18947;SDS011;9607;51.600;7.558;2023-02-20T11:18:52;28.30;;;16.83;;
18947;SDS011;9607;51.600;7.558;2023-02-20T11:21:34;26.52;;;15.50;;
18947;SDS011;9607;51.600;7.558;2023-02-20T11:24:16;23.63;;;15.05;;
18947;SDS011;9607;51.600;7.558;2023-02-20T11:26:46;24.00;;;16.33;;
18947;SDS011;9607;51.600;7.558;2023-02-20T11:29:16;26.88;;;15.40;;
18947;SDS011;9607;51.600;7.558;2023-02-20T11:31:45;26.92;;;15.35;;
18947;SDS011;9607;51.600;7.558;2023-02-20T11:34:16;27.48;;;15.98;;
18947;SDS011;9607;51.600;7.558;2023-02-20T11:36:45;28.20;;;16.77;;
18947;SDS011;9607;51.600;7.558;2023-02-20T11:39:21;26.77;;;16.25;;
18947;SDS011;9607;51.600;7.558;2023-02-20T11:42:02;24.45;;;15.90;;
18947;SDS011;9607;51.600;7.558;2023-02-20T11:44:32;24.25;;;15.80;;
18947;SDS011;9607;51.600;7.558;2023-02-20T11:47:09;27.83;;;16.45;;
18947;SDS011;9607;51.600;7.558;2023-02-20T11:49:44;27.63;;;17.17;;
18947;SDS011;9607;51.600;7.558;2023-02-20T11:52:14;27.85;;;16.27;;
18947;SDS011;9607;51.600;7.558;2023-02-20T11:54:42;28.50;;;17.67;;
18947;SDS011;9607;51.600;7.558;2023-02-20T11:57:17;29.92;;;18.40;;
18947;SDS011;9607;51.600;7.558;2023-02-20T11:59:49;30.80;;;17.67;;
18947;SDS011;9607;51.600;7.558;2023-02-20T12:02:25;32.55;;;18.63;;
18947;SDS011;9607;51.600;7.558;2023-02-20T12:05:03;33.13;;;20.40;;
18947;SDS011;9607;51.600;7.558;2023-02-20T12:07:36;34.40;;;20.60;;
18947;SDS011;9607;51.600;7.558;2023-02-20T12:13:03;39.63;;;22.20;;
18947;SDS011;9607;51.600;7.558;2023-02-20T12:15:31;35.55;;;23.15;;
18947;SDS011;9607;51.600;7.558;2023-02-20T12:18:06;36.15;;;23.58;;
18947;SDS011;9607;51.600;7.558;2023-02-20T12:21:01;35.33;;;21.75;;
18947;SDS011;9607;51.600;7.558;2023-02-20T12:23:36;34.65;;;21.48;;
18947;SDS011;9607;51.600;7.558;2023-02-20T12:26:22;35.95;;;22.13;;
18947;SDS011;9607;51.600;7.558;2023-02-20T12:29:01;38.00;;;21.98;;
18947;SDS011;9607;51.600;7.558;2023-02-20T12:31:39;41.60;;;24.17;;
18947;SDS011;9607;51.600;7.558;2023-02-20T12:34:19;35.00;;;21.38;;
18947;SDS011;9607;51.600;7.558;2023-02-20T12:37:13;35.35;;;22.65;;
18947;SDS011;9607;51.600;7.558;2023-02-20T12:39:46;36.30;;;21.90;;
18947;SDS011;9607;51.600;7.558;2023-02-20T12:42:25;37.05;;;21.00;;
18947;SDS011;9607;51.600;7.558;2023-02-20T12:45:10;35.65;;;21.35;;
18947;SDS011;9607;51.600;7.558;2023-02-20T12:47:43;36.72;;;21.25;;
18947;SDS011;9607;51.600;7.558;2023-02-20T12:50:20;29.27;;;19.70;;
18947;SDS011;9607;51.600;7.558;2023-02-20T12:53:08;31.00;;;19.38;;
18947;SDS011;9607;51.600;7.558;2023-02-20T12:55:44;25.15;;;16.92;;
18947;SDS011;9607;51.600;7.558;2023-02-20T12:58:21;29.27;;;18.30;;
18947;SDS011;9607;51.600;7.558;2023-02-20T13:00:57;27.10;;;18.88;;
18947;SDS011;9607;51.600;7.558;2023-02-20T13:03:32;32.65;;;19.23;;
18947;SDS011;9607;51.600;7.558;2023-02-20T13:06:04;27.98;;;18.05;;
18947;SDS011;9607;51.600;7.558;2023-02-20T13:08:34;33.38;;;19.70;;
18947;SDS011;9607;51.600;7.558;2023-02-20T13:11:11;28.20;;;16.77;;
18947;SDS011;9607;51.600;7.558;2023-02-20T13:13:44;31.60;;;19.08;;
18947;SDS011;9607;51.600;7.558;2023-02-20T13:16:23;30.83;;;19.05;;
18947;SDS011;9607;51.600;7.558;2023-02-20T13:18:58;31.10;;;19.80;;
18947;SDS011;9607;51.600;7.558;2023-02-20T13:21:31;30.17;;;17.38;;
18947;SDS011;9607;51.600;7.558;2023-02-20T13:26:56;33.35;;;20.00;;
18947;SDS011;9607;51.600;7.558;2023-02-20T13:29:24;31.35;;;20.75;;
18947;SDS011;9607;51.600;7.558;2023-02-20T13:31:53;35.17;;;20.02;;
18947;SDS011;9607;51.600;7.558;2023-02-20T13:34:28;35.90;;;20.67;;
18947;SDS011;9607;51.600;7.558;2023-02-20T13:36:57;36.65;;;21.95;;
18947;SDS011;9607;51.600;7.558;2023-02-20T13:39:25;28.48;;;19.27;;
18947;SDS011;9607;51.600;7.558;2023-02-20T13:42:02;36.53;;;22.02;;
18947;SDS011;9607;51.600;7.558;2023-02-20T13:52:58;33.03;;;21.27;;
18947;SDS011;9607;51.600;7.558;2023-02-20T13:55:28;40.20;;;21.90;;
18947;SDS011;9607;51.600;7.558;2023-02-20T13:58:00;39.08;;;21.73;;
18947;SDS011;9607;51.600;7.558;2023-02-20T14:00:32;38.38;;;23.60;;
18947;SDS011;9607;51.600;7.558;2023-02-20T14:03:10;37.58;;;22.75;;
18947;SDS011;9607;51.600;7.558;2023-02-20T14:05:38;38.65;;;23.10;;
18947;SDS011;9607;51.600;7.558;2023-02-20T14:08:10;34.95;;;22.05;;
18947;SDS011;9607;51.600;7.558;2023-02-20T14:10:44;36.55;;;21.65;;
18947;SDS011;9607;51.600;7.558;2023-02-20T14:13:14;33.47;;;22.05;;
18947;SDS011;9607;51.600;7.558;2023-02-20T14:15:44;42.38;;;25.45;;
18947;SDS011;9607;51.600;7.558;2023-02-20T14:18:14;37.58;;;25.05;;
18947;SDS011;9607;51.600;7.558;2023-02-20T14:20:43;37.00;;;23.73;;
18947;SDS011;9607;51.600;7.558;2023-02-20T14:23:20;41.03;;;24.55;;
18947;SDS011;9607;51.600;7.558;2023-02-20T14:25:54;38.97;;;23.13;;
18947;SDS011;9607;51.600;7.558;2023-02-20T14:28:22;39.15;;;23.40;;
18947;SDS011;9607;51.600;7.558;2023-02-20T14:31:02;41.00;;;24.30;;
18947;SDS011;9607;51.600;7.558;2023-02-20T14:33:44;42.67;;;26.17;;
18947;SDS011;9607;51.600;7.558;2023-02-20T14:36:25;40.13;;;26.05;;
18947;SDS011;9607;51.600;7.558;2023-02-20T14:42:05;40.50;;;25.67;;
18947;SDS011;9607;51.600;7.558;2023-02-20T14:44:40;46.20;;;26.02;;
18947;SDS011;9607;51.600;7.558;2023-02-20T14:47:07;39.70;;;24.52;;
18947;SDS011;9607;51.600;7.558;2023-02-20T14:49:37;50.05;;;28.13;;
18947;SDS011;9607;51.600;7.558;2023-02-20T14:52:10;41.05;;;26.63;;
18947;SDS011;9607;51.600;7.558;2023-02-20T14:54:40;47.30;;;27.35;;
18947;SDS011;9607;51.600;7.558;2023-02-20T14:57:12;46.63;;;26.80;;
18947;SDS011;9607;51.600;7.558;2023-02-20T14:59:40;43.17;;;27.60;;
18947;SDS011;9607;51.600;7.558;2023-02-20T15:02:13;48.13;;;28.20;;
18947;SDS011;9607;51.600;7.558;2023-02-20T15:04:45;44.42;;;27.98;;
18947;SDS011;9607;51.600;7.558;2023-02-20T15:07:13;44.25;;;27.83;;
18947;SDS011;9607;51.600;7.558;2023-02-20T15:09:41;40.58;;;27.58;;
18947;SDS011;9607;51.600;7.558;2023-02-20T15:12:19;46.85;;;27.48;;
18947;SDS011;9607;51.600;7.558;2023-02-20T15:14:52;48.50;;;27.75;;
18947;SDS011;9607;51.600;7.558;2023-02-20T15:17:22;41.67;;;27.52;;
18947;SDS011;9607;51.600;7.558;2023-02-20T15:19:51;47.60;;;28.17;;
18947;SDS011;9607;51.600;7.558;2023-02-20T15:22:26;52.00;;;29.08;;